Z17G weather

Al Qatranah Highway Strip
Ma'an Governorate, Jordan

Public forecast

Using degrees Celsius for public forecast. Weather courtesy of forecast.io.

METAR (pilot weather report)

Closest report is Queen Alia International Airport, 30.6 nm (56.7 km) NNW. Retrieved 2019/07/19 11:00 UTC (23 minutes ago):

OJAI 191100Z 29012KT 8000 NSC 30/13 Q1013 NOSIG

TAF (pilot weather forecast)

Closest forecast is Queen Alia International Airport, 30.6 nm (56.7 km) NNW. Retrieved 2019/07/19 06:00 UTC (5 hours ago):

TAF OJAI 190500Z 1906/2012 30008KT 7000 FEW030 TEMPO 1910/1918 28018KT 4000 BLDU FEW030